Time;durP1;ratioP1;P1;durP2;ratioP2;P2;SDS_P1;SDS_P2;PMS_P1;PMS_P2;Temp;Humidity;BMP_temperature;BMP_pressure;BME280_temperature;BME280_humidity;BME280_pressure;Samples;Min_cycle;Max_cycle;Signal;HPM_P1;HPM_P2
2023/01/02 00:02:26;;;;;;;8.27;1.70;;;9.40;99.90;;;;;;4991812;28;20635;-61
2023/01/02 00:04:52;;;;;;;7.30;2.13;;;9.40;99.90;;;;;;4992613;28;20050;-58
2023/01/02 00:07:18;;;;;;;7.30;1.88;;;9.40;99.90;;;;;;4992206;28;20049;-62
2023/01/02 00:09:44;;;;;;;7.50;2.58;;;9.40;99.90;;;;;;4994633;28;20056;-61
2023/01/02 00:12:10;;;;;;;5.50;1.77;;;9.40;99.90;;;;;;4990952;28;20044;-61
2023/01/02 00:14:35;;;;;;;7.22;2.30;;;9.30;99.90;;;;;;4994630;28;20504;-60
2023/01/02 00:17:01;;;;;;;8.45;1.98;;;9.40;99.90;;;;;;4986222;28;20501;-61
2023/01/02 00:19:27;;;;;;;8.93;2.75;;;9.30;99.90;;;;;;5005220;28;20044;-61
2023/01/02 00:21:53;;;;;;;5.72;1.90;;;9.40;99.90;;;;;;5004380;28;20042;-61
2023/01/02 00:24:18;;;;;;;7.95;2.42;;;9.40;99.90;;;;;;4991155;28;20037;-62
2023/01/02 00:26:44;;;;;;;5.90;2.50;;;9.40;99.90;;;;;;4990452;28;20527;-59
2023/01/02 00:29:10;;;;;;;9.05;2.72;;;9.40;99.90;;;;;;4992361;28;20035;-60
2023/01/02 00:31:35;;;;;;;7.10;2.70;;;9.40;99.90;;;;;;5002208;28;20128;-61
2023/01/02 00:34:01;;;;;;;7.63;3.45;;;9.40;99.90;;;;;;4975071;28;20397;-61
2023/01/02 00:36:27;;;;;;;8.25;2.90;;;9.40;99.90;;;;;;4990247;28;20045;-61
2023/01/02 00:38:55;;;;;;;6.28;2.65;;;9.40;99.90;;;;;;4989416;28;20033;-61
2023/01/02 00:41:21;;;;;;;8.10;2.97;;;9.40;99.90;;;;;;4993253;28;20943;-60
2023/01/02 00:43:47;;;;;;;8.45;3.90;;;9.40;99.90;;;;;;4988025;28;20386;-61
2023/01/02 00:46:13;;;;;;;9.88;3.50;;;9.50;99.90;;;;;;4992985;28;20045;-60
2023/01/02 00:48:39;;;;;;;6.70;3.25;;;9.50;99.90;;;;;;4995059;28;20057;-62
2023/01/02 00:51:05;;;;;;;5.30;3.33;;;9.50;99.90;;;;;;5006109;28;20049;-61
2023/01/02 00:53:30;;;;;;;6.03;4.03;;;9.50;99.90;;;;;;4992986;23;20061;-60
2023/01/02 00:55:56;;;;;;;8.05;4.47;;;9.60;99.90;;;;;;4965563;28;20386;-59
2023/01/02 00:58:22;;;;;;;7.38;4.35;;;9.60;99.90;;;;;;4958496;28;20500;-60
2023/01/02 01:00:49;;;;;;;8.98;4.95;;;9.70;99.90;;;;;;4975362;28;20129;-60
2023/01/02 01:03:15;;;;;;;10.20;5.28;;;9.70;99.90;;;;;;4995164;28;20120;-60
2023/01/02 01:05:40;;;;;;;8.80;5.60;;;9.70;99.90;;;;;;4975363;28;20484;-59
2023/01/02 01:08:06;;;;;;;8.73;5.63;;;9.80;99.90;;;;;;4960698;28;20050;-61
2023/01/02 01:10:34;;;;;;;8.27;5.18;;;9.80;99.90;;;;;;4974878;28;20404;-58
2023/01/02 01:12:59;;;;;;;9.32;5.38;;;9.90;99.90;;;;;;4978839;28;20513;-60
2023/01/02 01:15:25;;;;;;;8.55;6.20;;;9.90;99.90;;;;;;4983717;28;20157;-58
2023/01/02 01:17:51;;;;;;;10.13;7.25;;;10.00;99.90;;;;;;5003968;28;20037;-58
2023/01/02 01:20:17;;;;;;;11.18;6.85;;;10.00;99.90;;;;;;4978588;28;20064;-60
2023/01/02 01:22:43;;;;;;;12.45;7.15;;;10.00;99.90;;;;;;4965343;28;20394;-60
2023/01/02 01:25:09;;;;;;;10.48;7.57;;;10.10;99.90;;;;;;4983522;28;20056;-58
2023/01/02 01:27:34;;;;;;;11.38;6.85;;;10.10;99.90;;;;;;4965458;28;20034;-58
2023/01/02 01:30:00;;;;;;;9.27;6.93;;;10.20;99.90;;;;;;4979007;28;20064;-59
2023/01/02 01:32:27;;;;;;;8.73;6.25;;;10.20;99.90;;;;;;4981639;28;20044;-60
2023/01/02 01:34:53;;;;;;;10.10;6.40;;;10.20;99.90;;;;;;5000204;28;20795;-61
2023/01/02 01:37:19;;;;;;;10.57;6.72;;;10.30;99.90;;;;;;4982028;28;20034;-57
2023/01/02 01:39:44;;;;;;;10.55;6.50;;;10.30;99.90;;;;;;4977989;28;20481;-60
2023/01/02 01:42:14;;;;;;;9.63;6.90;;;10.30;99.90;;;;;;4984820;28;20037;-60
2023/01/02 01:44:50;;;;;;;8.15;5.43;;;10.40;99.90;;;;;;4979238;28;20068;-60
2023/01/02 01:47:26;;;;;;;8.88;5.97;;;10.40;99.90;;;;;;4981650;28;20050;-59
2023/01/02 01:50:07;;;;;;;7.47;5.65;;;10.40;99.90;;;;;;4980092;28;20053;-60
2023/01/02 01:52:38;;;;;;;8.27;5.65;;;10.40;99.90;;;;;;4966223;28;20042;-61
2023/01/02 01:55:09;;;;;;;8.77;6.10;;;10.40;99.90;;;;;;4981810;28;20044;-60
2023/01/02 01:57:48;;;;;;;10.60;6.38;;;10.40;99.90;;;;;;4959293;28;20042;-60
2023/01/02 02:00:14;;;;;;;7.80;5.78;;;10.50;99.90;;;;;;4979596;28;20050;-59
2023/01/02 02:02:45;;;;;;;8.38;5.75;;;10.50;99.90;;;;;;4985353;28;20493;-60
2023/01/02 02:05:15;;;;;;;7.75;5.30;;;10.50;99.90;;;;;;4985526;28;20045;-61
2023/01/02 02:07:49;;;;;;;9.02;6.68;;;10.50;99.90;;;;;;4984154;28;20042;-60
2023/01/02 02:10:15;;;;;;;7.90;6.75;;;10.50;99.90;;;;;;4981659;28;20364;-61
2023/01/02 02:12:40;;;;;;;10.82;7.13;;;10.50;99.90;;;;;;4999704;28;20058;-60
2023/01/02 02:15:11;;;;;;;10.18;7.57;;;10.60;99.90;;;;;;4979566;28;20052;-58
2023/01/02 02:18:08;;;;;;;13.55;8.13;;;10.50;99.90;;;;;;4968876;28;20136;-58
2023/01/02 02:20:57;;;;;;;11.25;7.70;;;10.60;99.90;;;;;;4984417;28;22366;-59
2023/01/02 02:23:58;;;;;;;11.60;8.07;;;10.60;99.90;;;;;;4963817;28;20050;-61
2023/01/02 02:26:53;;;;;;;11.27;8.70;;;10.60;99.90;;;;;;4980230;28;20127;-61
2023/01/02 02:29:46;;;;;;;15.32;10.23;;;10.60;99.90;;;;;;4983634;28;20069;-60
2023/01/02 02:32:26;;;;;;;16.13;11.35;;;10.60;99.90;;;;;;4979315;28;20488;-60
2023/01/02 02:34:57;;;;;;;14.57;11.25;;;10.60;99.90;;;;;;4981531;28;20084;-60
2023/01/02 02:37:43;;;;;;;21.00;14.02;;;10.70;99.90;;;;;;4959704;28;20042;-61
2023/01/02 02:40:30;;;;;;;20.23;13.93;;;10.60;99.90;;;;;;4997584;28;20513;-60
2023/01/02 02:43:14;;;;;;;25.25;15.70;;;10.70;99.90;;;;;;4978109;28;20058;-59
2023/01/02 02:45:58;;;;;;;27.10;17.38;;;10.70;99.90;;;;;;4978871;28;20076;-59
2023/01/02 02:48:59;;;;;;;19.65;16.23;;;10.70;99.90;;;;;;4980070;28;20049;-60
2023/01/02 02:51:36;;;;;;;24.20;17.35;;;10.70;99.90;;;;;;4955129;28;20132;-60
2023/01/02 02:54:25;;;;;;;29.98;18.67;;;10.80;99.90;;;;;;4980190;28;20053;-60
2023/01/02 02:56:53;;;;;;;28.83;19.17;;;10.80;99.90;;;;;;4983911;28;20088;-58
2023/01/02 02:59:20;;;;;;;30.98;18.67;;;10.80;99.90;;;;;;4980194;28;20064;-57
2023/01/02 03:01:46;;;;;;;29.33;19.25;;;10.80;99.90;;;;;;4987423;28;20038;-60
2023/01/02 03:04:17;;;;;;;30.15;19.05;;;10.80;99.90;;;;;;4973584;28;20169;-58
2023/01/02 03:06:51;;;;;;;38.88;18.77;;;10.90;99.90;;;;;;4992058;28;20328;-59
2023/01/02 03:09:42;;;;;;;29.15;19.92;;;10.90;99.90;;;;;;4961661;28;20042;-59
2023/01/02 03:12:17;;;;;;;33.22;19.13;;;10.90;99.90;;;;;;4989024;23;20112;-60
2023/01/02 03:15:05;;;;;;;33.10;19.65;;;10.90;99.90;;;;;;4978370;28;20088;-61
2023/01/02 03:18:05;;;;;;;32.55;18.40;;;11.00;99.90;;;;;;4993782;28;20083;-61
2023/01/02 03:20:37;;;;;;;31.38;19.13;;;11.00;99.90;;;;;;4975984;28;20042;-60
2023/01/02 03:23:09;;;;;;;33.90;18.67;;;11.00;99.90;;;;;;4981421;28;20050;-62
2023/01/02 03:25:36;;;;;;;29.83;17.73;;;11.00;99.90;;;;;;4978511;28;20042;-60
2023/01/02 03:28:06;;;;;;;30.05;18.15;;;11.10;99.90;;;;;;4972599;28;20535;-62
2023/01/02 03:30:36;;;;;;;26.35;17.40;;;11.00;99.90;;;;;;4962638;28;20042;-62
2023/01/02 03:33:07;;;;;;;32.10;17.55;;;11.10;99.90;;;;;;4974830;28;20071;-61
2023/01/02 03:35:47;;;;;;;29.77;17.20;;;11.10;99.90;;;;;;4975859;28;20041;-62
2023/01/02 03:38:19;;;;;;;26.10;16.45;;;11.10;99.90;;;;;;4978184;28;20077;-62
2023/01/02 03:40:55;;;;;;;28.40;16.60;;;11.10;99.90;;;;;;4976721;28;20488;-62
2023/01/02 03:43:27;;;;;;;24.85;16.13;;;11.10;99.90;;;;;;4993927;28;20050;-59
2023/01/02 03:46:41;;;;;;;26.23;16.33;;;11.10;99.90;;;;;;4995134;28;20038;-63
2023/01/02 03:49:20;;;;;;;25.60;17.08;;;11.10;99.90;;;;;;4956408;28;20327;-61
2023/01/02 03:51:46;;;;;;;26.50;16.90;;;11.10;99.90;;;;;;4979445;28;20283;-62
2023/01/02 03:54:14;;;;;;;26.40;18.25;;;11.10;99.90;;;;;;4993889;28;20038;-61
2023/01/02 03:56:42;;;;;;;22.98;17.10;;;11.10;99.90;;;;;;4971197;28;20069;-61
2023/01/02 03:59:15;;;;;;;22.45;16.02;;;11.10;99.90;;;;;;4998615;28;20405;-62
2023/01/02 04:01:56;;;;;;;25.85;17.40;;;11.10;99.90;;;;;;4990307;28;20049;-61
2023/01/02 04:04:36;;;;;;;22.55;16.35;;;11.10;99.90;;;;;;4966202;28;20216;-63
2023/01/02 04:07:07;;;;;;;28.85;17.75;;;11.10;99.90;;;;;;4969226;28;20069;-62
2023/01/02 04:09:34;;;;;;;32.17;18.05;;;11.10;99.90;;;;;;4976619;28;20069;-59
2023/01/02 04:12:06;;;;;;;27.60;18.38;;;11.20;99.90;;;;;;4994742;28;20041;-62
2023/01/02 04:14:40;;;;;;;31.67;17.75;;;11.20;99.90;;;;;;4993215;28;20049;-61
2023/01/02 04:17:09;;;;;;;27.52;18.35;;;11.20;99.90;;;;;;4972253;28;20116;-60
2023/01/02 04:19:42;;;;;;;30.85;18.90;;;11.10;99.90;;;;;;4993724;28;20144;-61
2023/01/02 04:22:16;;;;;;;24.33;16.90;;;11.20;99.90;;;;;;4990876;28;20124;-59
2023/01/02 04:24:49;;;;;;;25.67;17.48;;;11.20;99.90;;;;;;4991167;28;20037;-60
2023/01/02 04:27:23;;;;;;;33.10;18.30;;;11.20;99.90;;;;;;4976186;28;20168;-60
2023/01/02 04:29:49;;;;;;;29.80;18.17;;;11.20;99.90;;;;;;4989359;28;20068;-61
2023/01/02 04:32:39;;;;;;;29.50;18.75;;;11.20;99.90;;;;;;4975912;28;20042;-61
2023/01/02 04:35:08;;;;;;;26.65;16.75;;;11.20;99.90;;;;;;4997108;28;20092;-61
2023/01/02 04:37:36;;;;;;;24.65;17.35;;;11.20;99.90;;;;;;4988530;28;20080;-62
2023/01/02 04:40:22;;;;;;;28.10;18.95;;;11.20;99.90;;;;;;4990702;28;20068;-62
2023/01/02 04:42:47;;;;;;;29.40;18.75;;;11.20;99.90;;;;;;4992212;28;20052;-60
2023/01/02 04:45:13;;;;;;;30.85;19.52;;;11.20;99.90;;;;;;4993596;28;20052;-62
2023/01/02 04:47:39;;;;;;;27.88;18.42;;;11.20;99.90;;;;;;4993302;28;20228;-62
2023/01/02 04:50:06;;;;;;;29.15;18.27;;;11.20;99.90;;;;;;4987133;28;20053;-61
2023/01/02 04:52:32;;;;;;;26.25;17.25;;;11.20;99.90;;;;;;4975357;28;20042;-61
2023/01/02 04:54:58;;;;;;;26.65;17.55;;;11.20;99.90;;;;;;4993128;28;20053;-61
2023/01/02 04:57:23;;;;;;;24.60;16.48;;;11.20;99.90;;;;;;4989529;28;20121;-61
2023/01/02 04:59:49;;;;;;;27.05;16.77;;;11.20;99.90;;;;;;4977969;28;20038;-61
2023/01/02 05:02:15;;;;;;;26.65;16.52;;;11.20;99.90;;;;;;4964947;28;20109;-62
2023/01/02 05:04:40;;;;;;;22.60;16.30;;;11.20;99.90;;;;;;4955509;28;20087;-62
2023/01/02 05:07:06;;;;;;;25.75;16.98;;;11.20;99.90;;;;;;4977371;28;20828;-60
2023/01/02 05:09:32;;;;;;;26.90;16.20;;;11.20;99.90;;;;;;4952560;28;20248;-60
2023/01/02 05:11:58;;;;;;;22.13;14.95;;;11.20;99.90;;;;;;4996225;28;20038;-60
2023/01/02 05:14:23;;;;;;;22.77;16.20;;;11.20;99.90;;;;;;4971613;28;20132;-62
2023/01/02 05:16:49;;;;;;;20.77;14.10;;;11.20;99.90;;;;;;4989631;28;20520;-62
2023/01/02 05:19:15;;;;;;;23.83;14.80;;;11.20;99.90;;;;;;4997704;28;20111;-61
2023/01/02 05:24:26;;;;;;;20.42;14.70;;;11.10;99.90;;;;;;4974017;28;20046;-62
2023/01/02 05:26:53;;;;;;;20.63;15.35;;;11.10;99.90;;;;;;4991277;28;20084;-59
2023/01/02 05:29:19;;;;;;;21.95;15.80;;;11.10;99.90;;;;;;4973626;28;21264;-61
2023/01/02 05:31:45;;;;;;;22.58;15.60;;;11.10;99.90;;;;;;4960530;28;20053;-61
2023/01/02 05:34:14;;;;;;;21.52;15.52;;;11.10;99.90;;;;;;4979568;28;20042;-61
2023/01/02 05:36:40;;;;;;;18.80;14.10;;;11.10;99.90;;;;;;4977190;28;20042;-60
2023/01/02 05:39:08;;;;;;;20.55;14.82;;;11.10;99.90;;;;;;4992254;28;20038;-61
2023/01/02 05:41:33;;;;;;;20.77;14.57;;;11.10;99.90;;;;;;4979183;28;20698;-60
2023/01/02 05:43:59;;;;;;;20.92;15.38;;;11.10;99.90;;;;;;4998139;28;20041;-62
2023/01/02 05:46:25;;;;;;;21.05;14.10;;;11.10;99.90;;;;;;4961024;28;20092;-60
2023/01/02 05:48:50;;;;;;;19.92;13.23;;;11.00;99.90;;;;;;4993772;28;20050;-60
2023/01/02 05:51:17;;;;;;;17.38;13.00;;;11.10;99.90;;;;;;4975283;28;20069;-60
2023/01/02 05:53:43;;;;;;;18.17;13.93;;;11.00;99.90;;;;;;4962558;28;20128;-61
2023/01/02 05:56:11;;;;;;;16.88;12.55;;;11.00;99.90;;;;;;4977511;28;20049;-62
2023/01/02 05:58:39;;;;;;;17.10;13.00;;;11.00;99.90;;;;;;4997395;28;20044;-61
2023/01/02 06:01:23;;;;;;;19.17;12.93;;;11.00;99.90;;;;;;4989978;28;20050;-62
2023/01/02 06:03:51;;;;;;;18.73;13.88;;;11.00;99.90;;;;;;4994679;28;20456;-61
2023/01/02 06:06:18;;;;;;;18.08;13.23;;;11.00;99.90;;;;;;4972055;28;20050;-60
2023/01/02 06:08:44;;;;;;;18.50;13.52;;;11.00;99.90;;;;;;4982261;28;20073;-61
2023/01/02 06:11:10;;;;;;;20.35;13.60;;;10.90;99.90;;;;;;4991761;28;20195;-60
2023/01/02 06:13:37;;;;;;;27.25;13.63;;;10.90;99.90;;;;;;4992701;28;20472;-59
2023/01/02 06:16:04;;;;;;;26.48;14.88;;;10.70;99.90;;;;;;4976137;28;20656;-61
2023/01/02 06:18:32;;;;;;;30.10;16.50;;;10.60;99.90;;;;;;4990646;28;20049;-61
2023/01/02 06:21:03;;;;;;;30.63;17.30;;;10.50;99.90;;;;;;4994549;28;20137;-60
2023/01/02 06:23:30;;;;;;;33.55;15.38;;;10.30;99.90;;;;;;4977027;28;20046;-61
2023/01/02 06:26:02;;;;;;;22.17;10.63;;;10.10;99.90;;;;;;4996769;28;20076;-61
2023/01/02 06:28:27;;;;;;;23.45;9.32;;;9.80;99.90;;;;;;4999197;28;20401;-60
2023/01/02 06:31:01;;;;;;;14.52;6.38;;;9.70;99.90;;;;;;4981161;28;20053;-61
2023/01/02 06:33:28;;;;;;;14.45;5.68;;;9.60;99.90;;;;;;4976763;28;20041;-61
2023/01/02 06:36:06;;;;;;;11.65;4.22;;;9.50;99.90;;;;;;4976610;28;20038;-61
2023/01/02 06:38:32;;;;;;;9.68;3.80;;;9.40;99.90;;;;;;4979397;28;20037;-62
2023/01/02 06:40:59;;;;;;;8.48;3.30;;;9.30;99.90;;;;;;4973844;28;20523;-61
2023/01/02 06:43:27;;;;;;;10.55;3.70;;;9.30;99.90;;;;;;4970709;28;20474;-60
2023/01/02 06:45:56;;;;;;;8.85;4.45;;;9.20;99.90;;;;;;4973815;28;20034;-60
2023/01/02 06:48:22;;;;;;;5.32;2.95;;;9.20;99.90;;;;;;4956575;28;20046;-62
2023/01/02 06:50:48;;;;;;;5.00;2.08;;;9.10;99.90;;;;;;4994768;28;20555;-61
2023/01/02 06:53:13;;;;;;;8.27;3.20;;;9.00;99.90;;;;;;4973408;28;20045;-60
2023/01/02 06:55:39;;;;;;;7.15;2.45;;;8.90;99.90;;;;;;4995925;28;20042;-61
2023/01/02 06:58:05;;;;;;;7.57;1.70;;;8.90;99.90;;;;;;4998634;28;20121;-62
2023/01/02 07:00:31;;;;;;;2.42;1.10;;;8.80;99.90;;;;;;4980313;28;20080;-61
2023/01/02 07:02:56;;;;;;;1.67;1.00;;;8.80;99.90;;;;;;4965880;28;20053;-60
2023/01/02 07:05:22;;;;;;;4.13;1.10;;;8.80;99.90;;;;;;4963727;28;20041;-62
2023/01/02 07:07:48;;;;;;;4.25;1.23;;;8.80;99.90;;;;;;4982908;28;20042;-62
2023/01/02 07:10:14;;;;;;;4.05;0.82;;;8.80;99.90;;;;;;4960754;28;20109;-62
2023/01/02 07:12:40;;;;;;;6.32;1.10;;;8.80;99.90;;;;;;4999207;28;20030;-61
2023/01/02 07:15:06;;;;;;;5.72;1.48;;;8.80;99.90;;;;;;4997378;28;20036;-62
2023/01/02 07:17:32;;;;;;;5.25;1.50;;;8.80;99.90;;;;;;4981477;28;20053;-60
2023/01/02 07:19:58;;;;;;;5.80;2.00;;;8.80;99.90;;;;;;4980386;28;20064;-60
2023/01/02 07:22:25;;;;;;;6.00;1.23;;;8.70;99.90;;;;;;5000687;28;20418;-62
2023/01/02 07:24:51;;;;;;;10.63;2.90;;;8.70;99.90;;;;;;4997476;28;20048;-60
2023/01/02 07:27:17;;;;;;;6.13;1.40;;;8.60;99.90;;;;;;4979529;28;20058;-62
2023/01/02 07:29:42;;;;;;;4.78;1.30;;;8.60;99.90;;;;;;4998228;28;20080;-62
2023/01/02 07:32:08;;;;;;;4.03;1.50;;;8.60;99.90;;;;;;4994760;28;20128;-61
2023/01/02 07:34:34;;;;;;;3.55;1.10;;;8.60;99.90;;;;;;4972788;28;20504;-61
2023/01/02 07:37:00;;;;;;;5.35;1.15;;;8.60;99.90;;;;;;4977980;28;20386;-62
2023/01/02 07:39:26;;;;;;;3.45;1.13;;;8.60;99.90;;;;;;4978241;28;20041;-62
2023/01/02 07:41:51;;;;;;;4.05;1.10;;;8.60;99.90;;;;;;4980901;28;20886;-62
2023/01/02 07:44:20;;;;;;;5.00;1.40;;;8.60;99.90;;;;;;4968809;28;20053;-63
2023/01/02 07:46:45;;;;;;;6.35;1.90;;;8.60;99.90;;;;;;4976905;28;20092;-63
2023/01/02 07:49:11;;;;;;;5.20;1.27;;;8.60;99.90;;;;;;4978686;28;20080;-61
2023/01/02 07:51:37;;;;;;;3.38;1.38;;;8.60;99.90;;;;;;4990328;28;20054;-60
2023/01/02 07:54:03;;;;;;;6.80;1.60;;;8.60;99.90;;;;;;4993188;28;20041;-63
2023/01/02 07:56:29;;;;;;;3.35;1.17;;;8.60;99.90;;;;;;4986568;28;20392;-62
2023/01/02 07:58:54;;;;;;;5.97;1.20;;;8.60;99.90;;;;;;4972584;28;20042;-61
2023/01/02 08:01:20;;;;;;;3.75;1.00;;;8.60;99.90;;;;;;4993578;28;20456;-60
2023/01/02 08:03:46;;;;;;;3.10;1.30;;;8.60;99.90;;;;;;4952973;28;20042;-60
2023/01/02 08:06:14;;;;;;;5.15;1.52;;;8.50;99.90;;;;;;4975631;28;20751;-61
2023/01/02 08:08:40;;;;;;;4.35;1.30;;;8.60;99.90;;;;;;4997914;28;20038;-59
2023/01/02 08:11:14;;;;;;;3.15;1.30;;;8.60;99.90;;;;;;5001264;28;20128;-62
2023/01/02 08:13:40;;;;;;;6.78;2.42;;;8.60;99.90;;;;;;4982453;28;20048;-62
2023/01/02 08:16:09;;;;;;;4.50;1.40;;;8.50;99.90;;;;;;4999082;28;20034;-61
2023/01/02 08:18:35;;;;;;;3.28;1.23;;;8.60;99.90;;;;;;4960196;28;20056;-62
2023/01/02 08:21:01;;;;;;;6.72;2.13;;;8.60;99.90;;;;;;4954470;28;20120;-61
2023/01/02 08:23:27;;;;;;;7.22;1.80;;;8.60;99.90;;;;;;4988062;28;20118;-61
2023/01/02 08:25:57;;;;;;;5.93;2.00;;;8.60;99.90;;;;;;4994757;28;20042;-62
2023/01/02 08:28:22;;;;;;;6.55;2.45;;;8.60;99.90;;;;;;4995580;28;20037;-61
2023/01/02 08:30:48;;;;;;;6.40;2.40;;;8.60;99.90;;;;;;4971288;28;20050;-62
2023/01/02 08:33:14;;;;;;;4.10;2.58;;;8.70;99.90;;;;;;4985488;28;20990;-61
2023/01/02 08:35:39;;;;;;;6.78;2.85;;;8.70;99.90;;;;;;4981212;28;20386;-61
2023/01/02 08:38:05;;;;;;;6.70;2.60;;;8.60;99.90;;;;;;4969949;28;20148;-61
2023/01/02 08:40:31;;;;;;;8.15;3.17;;;8.60;99.90;;;;;;4990770;28;20048;-62
2023/01/02 08:42:57;;;;;;;6.43;2.78;;;8.60;99.90;;;;;;4986575;28;20046;-60
2023/01/02 08:45:22;;;;;;;9.00;2.60;;;8.70;99.90;;;;;;4966928;28;20041;-62
2023/01/02 08:47:48;;;;;;;10.90;3.50;;;8.70;99.90;;;;;;4969616;28;20558;-61
2023/01/02 08:50:14;;;;;;;9.73;3.40;;;8.70;99.90;;;;;;4987293;28;20083;-62
2023/01/02 08:52:39;;;;;;;8.07;4.03;;;8.70;99.90;;;;;;4983759;28;20030;-60
2023/01/02 08:55:05;;;;;;;9.52;3.50;;;8.70;99.90;;;;;;4995375;28;20045;-62
2023/01/02 08:57:32;;;;;;;9.48;3.75;;;8.70;99.90;;;;;;4981196;28;20320;-62
2023/01/02 08:59:57;;;;;;;8.43;3.92;;;8.70;99.90;;;;;;4960519;28;20057;-62
2023/01/02 09:02:23;;;;;;;11.82;4.30;;;8.70;99.90;;;;;;4995093;28;20041;-63
2023/01/02 09:04:49;;;;;;;10.15;4.00;;;8.70;99.90;;;;;;4997075;28;20041;-61
2023/01/02 09:07:15;;;;;;;10.63;4.30;;;8.70;99.90;;;;;;5004021;28;20037;-62
2023/01/02 09:09:40;;;;;;;9.80;4.38;;;8.70;99.90;;;;;;5007413;28;20074;-61
2023/01/02 09:12:06;;;;;;;12.80;4.72;;;8.70;99.90;;;;;;4983527;28;20042;-62
2023/01/02 09:14:32;;;;;;;8.85;4.03;;;8.70;99.90;;;;;;4985308;28;20048;-62
2023/01/02 09:16:58;;;;;;;10.43;4.22;;;8.70;99.90;;;;;;5004257;28;20397;-62
2023/01/02 09:19:25;;;;;;;11.25;4.10;;;8.70;99.90;;;;;;4971617;28;20077;-62
2023/01/02 09:21:51;;;;;;;9.15;3.50;;;8.70;99.90;;;;;;4983279;28;20100;-60
2023/01/02 09:24:17;;;;;;;7.10;3.30;;;8.70;99.90;;;;;;5005653;28;20046;-61
2023/01/02 09:26:43;;;;;;;12.40;3.85;;;8.70;99.90;;;;;;5002342;28;20052;-62
2023/01/02 09:29:12;;;;;;;9.63;2.97;;;8.70;99.90;;;;;;4987990;28;20527;-62
2023/01/02 09:31:39;;;;;;;6.25;2.95;;;8.70;99.90;;;;;;4983608;28;20070;-62
2023/01/02 09:34:05;;;;;;;8.57;2.25;;;8.70;99.90;;;;;;5001307;28;20045;-61
2023/01/02 09:36:31;;;;;;;5.15;2.58;;;8.70;99.90;;;;;;5007799;28;20041;-61
2023/01/02 09:38:59;;;;;;;9.05;2.40;;;8.70;99.90;;;;;;4980584;28;20038;-61
2023/01/02 09:41:52;;;;;;;10.23;2.90;;;8.70;99.90;;;;;;5002153;28;20069;-61
2023/01/02 09:44:48;;;;;;;10.13;3.00;;;8.70;99.90;;;;;;4985010;28;20053;-63
2023/01/02 09:47:18;;;;;;;6.32;2.67;;;8.70;99.90;;;;;;5001958;28;20124;-60
2023/01/02 09:49:51;;;;;;;6.32;3.00;;;8.70;99.90;;;;;;4993930;28;20037;-61
2023/01/02 09:52:24;;;;;;;6.68;2.80;;;8.70;99.90;;;;;;4997308;28;20382;-62
2023/01/02 09:54:50;;;;;;;4.97;2.35;;;8.80;99.90;;;;;;4972406;28;20045;-61
2023/01/02 09:57:28;;;;;;;4.55;2.28;;;8.80;99.90;;;;;;4976413;28;20045;-62
2023/01/02 10:00:18;;;;;;;5.47;2.20;;;8.80;99.90;;;;;;4995302;28;20041;-62
2023/01/02 10:03:13;;;;;;;6.93;2.60;;;8.90;99.90;;;;;;4983117;28;20453;-60
2023/01/02 10:05:48;;;;;;;6.75;2.63;;;8.90;99.90;;;;;;4993845;28;20501;-61
2023/01/02 10:08:43;;;;;;;6.38;2.97;;;8.90;99.90;;;;;;4975225;28;20041;-61
2023/01/02 10:11:24;;;;;;;6.90;3.10;;;8.90;99.90;;;;;;4995512;28;20870;-58
2023/01/02 10:14:15;;;;;;;10.85;4.00;;;8.90;99.90;;;;;;5008652;28;20038;-59
2023/01/02 10:16:45;;;;;;;8.25;2.95;;;8.90;99.90;;;;;;4976639;28;20050;-60
2023/01/02 10:19:22;;;;;;;6.20;3.05;;;8.90;99.90;;;;;;5005741;28;20519;-60
2023/01/02 10:21:51;;;;;;;6.85;2.80;;;8.90;99.90;;;;;;4990033;28;20064;-60
2023/01/02 10:24:35;;;;;;;3.72;2.05;;;8.90;99.90;;;;;;4988069;28;20081;-60
2023/01/02 10:27:04;;;;;;;4.65;1.60;;;9.00;99.90;;;;;;4988623;28;20044;-59
2023/01/02 10:29:51;;;;;;;5.18;2.13;;;8.90;99.90;;;;;;5009079;28;20053;-59
2023/01/02 10:32:21;;;;;;;5.35;2.10;;;9.00;99.90;;;;;;4987329;28;20042;-60
2023/01/02 10:34:58;;;;;;;3.63;1.50;;;9.00;99.90;;;;;;4989877;28;20101;-59
2023/01/02 10:37:26;;;;;;;3.85;1.67;;;9.00;99.90;;;;;;5010620;28;20553;-59
2023/01/02 10:39:52;;;;;;;7.35;2.60;;;9.00;99.90;;;;;;5003429;28;20038;-60
2023/01/02 10:42:18;;;;;;;5.30;2.22;;;9.00;99.90;;;;;;5003643;28;20041;-59
2023/01/02 10:44:45;;;;;;;6.65;2.30;;;9.00;99.90;;;;;;5008929;28;20046;-60
2023/01/02 10:47:23;;;;;;;7.15;2.53;;;9.00;99.90;;;;;;4989415;28;20034;-60
2023/01/02 10:49:51;;;;;;;5.70;2.08;;;9.00;99.90;;;;;;5004462;28;20097;-59
2023/01/02 10:52:20;;;;;;;6.93;2.50;;;9.00;99.90;;;;;;5006265;28;20121;-60
2023/01/02 10:54:51;;;;;;;6.15;2.78;;;9.00;99.90;;;;;;5006213;28;20052;-59
2023/01/02 10:57:25;;;;;;;12.88;4.53;;;9.00;99.90;;;;;;4989127;28;20358;-59
2023/01/02 10:59:58;;;;;;;7.60;2.70;;;9.00;99.90;;;;;;5008564;28;20042;-60
2023/01/02 11:02:27;;;;;;;11.20;2.95;;;9.00;99.90;;;;;;4985320;28;20030;-59
2023/01/02 11:04:53;;;;;;;8.15;2.70;;;9.00;99.90;;;;;;5004910;28;20976;-59
2023/01/02 11:07:25;;;;;;;15.70;3.60;;;9.00;99.90;;;;;;5004850;28;20095;-58
2023/01/02 11:09:55;;;;;;;13.75;6.05;;;9.00;99.90;;;;;;5004284;28;20038;-60
2023/01/02 11:12:22;;;;;;;18.98;8.15;;;9.00;99.90;;;;;;4992214;28;20042;-59
2023/01/02 11:14:48;;;;;;;19.65;9.65;;;9.00;99.90;;;;;;4971385;28;20095;-59
2023/01/02 11:17:23;;;;;;;15.18;5.78;;;9.00;99.90;;;;;;5005566;28;20052;-59
2023/01/02 11:19:53;;;;;;;14.02;5.13;;;9.00;99.90;;;;;;5004690;28;20042;-58
2023/01/02 11:22:22;;;;;;;9.32;3.28;;;9.10;99.90;;;;;;4987677;28;20030;-58
2023/01/02 11:25:17;;;;;;;6.72;2.03;;;9.10;99.90;;;;;;4988860;28;20045;-58
2023/01/02 11:27:43;;;;;;;8.48;2.13;;;9.10;99.90;;;;;;5004736;28;20042;-59
2023/01/02 11:30:43;;;;;;;14.50;4.63;;;9.10;99.90;;;;;;5003065;28;20038;-58
2023/01/02 11:33:22;;;;;;;13.25;4.30;;;9.10;99.90;;;;;;5000008;28;20540;-58
2023/01/02 11:35:51;;;;;;;10.80;3.97;;;9.20;99.90;;;;;;4985322;28;20065;-59
2023/01/02 11:38:22;;;;;;;14.05;3.00;;;9.20;99.90;;;;;;5001214;28;20026;-59
2023/01/02 11:41:01;;;;;;;7.05;1.95;;;9.20;99.90;;;;;;4982323;28;20100;-59
2023/01/02 11:43:48;;;;;;;6.95;1.85;;;9.20;99.90;;;;;;4985467;28;20034;-59
2023/01/02 11:46:32;;;;;;;18.08;1.85;;;9.20;99.90;;;;;;5003285;28;20042;-58
2023/01/02 11:49:11;;;;;;;7.45;2.17;;;9.20;99.90;;;;;;4973016;28;20042;-59
2023/01/02 11:51:39;;;;;;;16.58;4.82;;;9.20;99.90;;;;;;5005492;28;20046;-58
2023/01/02 11:54:37;;;;;;;9.50;2.22;;;9.20;99.90;;;;;;5004096;28;20038;-59
2023/01/02 11:57:04;;;;;;;13.52;3.22;;;9.20;99.90;;;;;;5003536;28;20504;-59
2023/01/02 11:59:41;;;;;;;15.93;4.20;;;9.20;99.90;;;;;;5002428;28;20073;-58
2023/01/02 12:02:19;;;;;;;12.27;3.60;;;9.20;99.90;;;;;;5001968;28;20513;-59
2023/01/02 12:04:45;;;;;;;10.20;2.22;;;9.20;99.90;;;;;;4999024;28;20046;-59
2023/01/02 12:07:26;;;;;;;10.68;2.92;;;9.20;99.90;;;;;;4963937;28;20056;-59
2023/01/02 12:10:10;;;;;;;10.00;2.03;;;9.20;99.90;;;;;;5000715;28;20069;-59
2023/01/02 12:13:01;;;;;;;8.23;2.25;;;9.30;99.90;;;;;;4997462;28;20052;-59
2023/01/02 12:15:41;;;;;;;8.85;1.63;;;9.30;99.90;;;;;;5001163;28;20030;-58
2023/01/02 12:18:28;;;;;;;11.68;2.10;;;9.30;99.90;;;;;;5000588;28;20073;-59
2023/01/02 12:21:38;;;;;;;13.23;2.65;;;9.30;99.90;;;;;;4984911;28;20232;-59
2023/01/02 12:24:23;;;;;;;14.20;2.40;;;9.30;99.90;;;;;;4978680;28;20086;-59
2023/01/02 12:27:30;;;;;;;12.40;3.58;;;9.30;99.90;;;;;;4962380;28;20489;-59
2023/01/02 12:30:12;;;;;;;13.77;2.70;;;9.40;99.90;;;;;;4908325;29;20074;-59
2023/01/02 12:32:53;;;;;;;14.40;2.65;;;9.40;99.90;;;;;;4992841;28;20092;-58
2023/01/02 12:35:19;;;;;;;12.43;2.25;;;9.40;99.90;;;;;;5001588;28;20495;-59
2023/01/02 12:37:56;;;;;;;15.63;4.28;;;9.40;99.90;;;;;;4986485;28;20069;-57
2023/01/02 12:40:33;;;;;;;14.77;2.58;;;9.40;99.90;;;;;;5003037;28;20493;-59
2023/01/02 12:43:20;;;;;;;14.88;2.13;;;9.40;99.90;;;;;;4983500;28;20038;-59
2023/01/02 12:46:04;;;;;;;13.55;2.60;;;9.40;99.90;;;;;;4982206;28;20034;-59
2023/01/02 12:48:44;;;;;;;16.17;3.85;;;9.40;99.90;;;;;;5002962;28;20038;-59
2023/01/02 12:51:16;;;;;;;17.67;3.60;;;9.50;99.90;;;;;;4983640;28;20053;-60
2023/01/02 12:54:14;;;;;;;15.33;3.23;;;9.50;99.90;;;;;;5004788;23;20504;-59
2023/01/02 12:56:52;;;;;;;15.45;2.30;;;9.50;99.90;;;;;;4997318;28;20424;-58
2023/01/02 12:59:46;;;;;;;13.73;2.30;;;9.50;99.90;;;;;;4975831;28;20073;-59
2023/01/02 13:02:49;;;;;;;16.17;2.58;;;9.50;99.90;;;;;;4946821;28;20058;-59
2023/01/02 13:05:23;;;;;;;14.10;3.20;;;9.50;99.90;;;;;;4970740;28;20037;-59
2023/01/02 13:07:56;;;;;;;12.70;2.17;;;9.50;99.90;;;;;;4992731;28;20065;-59
2023/01/02 13:10:25;;;;;;;15.05;2.78;;;9.50;99.90;;;;;;4961834;28;20046;-59
2023/01/02 13:12:54;;;;;;;21.65;3.65;;;9.50;99.90;;;;;;4977525;28;20493;-58